Terminal Aerodrome Forecast
Issued by NWS

Home | Current Version | Previous Version | Graphics & Text | Print | Product List | Glossary On
Versions: 1 2 3 4 5 6 7 8 9 10 11 12 13 14 15 16 17 18 19 20 21 22 23 24 25
062
FTUS43 KLOT 060857 AAA
TAFDPA
TAF AMD
KDPA 060857Z 0609/0706 21003KT P6SM SCT045 OVC070
     FM061000 21004KT P6SM SCT035 OVC045
     FM061500 23010KT P6SM SCT045 SCT250=

USA.gov is the U.S. government's official web portal to all federal, state and local government web resources and services.